Time;durP1;ratioP1;P1;durP2;ratioP2;P2;SDS_P1;SDS_P2;PMS_P1;PMS_P2;Temp;Humidity;BMP_temperature;BMP_pressure;BME280_temperature;BME280_humidity;BME280_pressure;Samples;Min_cycle;Max_cycle;Signal;HPM_P1;HPM_P2
2022/03/25 00:02:23;;;;;;;;;;;6.20;99.90;;;;;;5070876;28;20308;-50
2022/03/25 00:04:50;;;;;;;;;;;6.30;99.90;;;;;;5064844;28;19928;-50
2022/03/25 00:07:17;;;;;;;;;;;6.20;99.90;;;;;;5069979;28;20392;-51
2022/03/25 00:09:44;;;;;;;;;;;6.10;99.90;;;;;;5071180;28;19947;-51
2022/03/25 00:12:10;;;;;;;;;;;6.10;99.90;;;;;;5070803;28;19986;-51
2022/03/25 00:14:37;;;;;;;;;;;6.00;99.90;;;;;;5077680;28;19932;-50
2022/03/25 00:17:07;;;;;;;;;;;6.00;99.90;;;;;;5072574;28;19932;-51
2022/03/25 00:19:34;;;;;;;;;;;6.00;99.90;;;;;;5075319;28;19970;-51
2022/03/25 00:22:00;;;;;;;;;;;5.90;99.90;;;;;;5114570;22;19927;-58
2022/03/25 00:24:27;;;;;;;;;;;5.90;99.90;;;;;;5115905;28;19923;-56
2022/03/25 00:26:54;;;;;;;;;;;5.90;99.90;;;;;;5115178;28;20006;-56
2022/03/25 00:29:21;;;;;;;;;;;5.90;99.90;;;;;;5116046;28;19930;-56
2022/03/25 00:31:47;;;;;;;;;;;5.80;99.90;;;;;;5104698;28;19931;-58
2022/03/25 00:34:16;;;;;;;;;;;5.80;99.90;;;;;;5095601;28;19928;-56
2022/03/25 00:36:42;;;;;;;;;;;5.80;99.90;;;;;;5095146;28;19931;-56
2022/03/25 00:39:09;;;;;;;;;;;5.70;99.90;;;;;;5095671;28;19924;-56
2022/03/25 00:41:36;;;;;;;;;;;5.60;99.90;;;;;;5099872;28;19967;-57
2022/03/25 00:44:04;;;;;;;;;;;5.60;99.90;;;;;;5095301;28;19924;-57
2022/03/25 00:46:30;;;;;;;;;;;5.50;99.90;;;;;;5094613;28;19924;-56
2022/03/25 00:48:57;;;;;;;;;;;5.40;99.90;;;;;;5095397;28;19925;-57
2022/03/25 00:51:25;;;;;;;;;;;5.50;99.90;;;;;;5095171;28;19974;-56
2022/03/25 00:53:52;;;;;;;;;;;5.50;99.90;;;;;;5095873;28;19997;-59
2022/03/25 00:56:19;;;;;;;;;;;5.50;99.90;;;;;;5096856;28;19924;-57
2022/03/25 00:58:46;;;;;;;;;;;5.50;99.90;;;;;;5099706;28;19924;-57
2022/03/25 01:01:12;;;;;;;;;;;5.40;99.90;;;;;;5099639;28;19932;-57
2022/03/25 01:03:39;;;;;;;;;;;5.40;99.90;;;;;;5097077;28;19924;-57
2022/03/25 01:06:06;;;;;;;;;;;5.40;99.90;;;;;;5094583;28;20444;-57
2022/03/25 01:08:35;;;;;;;;;;;5.30;99.90;;;;;;5095010;28;20448;-56
2022/03/25 01:11:04;;;;;;;;;;;5.40;99.90;;;;;;5095229;28;19924;-56
2022/03/25 01:13:33;;;;;;;;;;;5.30;99.90;;;;;;5095256;28;19931;-56
2022/03/25 01:16:00;;;;;;;;;;;5.30;99.90;;;;;;5095281;28;19927;-57
2022/03/25 01:18:27;;;;;;;;;;;5.40;99.90;;;;;;5095131;28;20345;-56
2022/03/25 01:20:54;;;;;;;;;;;5.40;99.90;;;;;;5096081;28;20018;-57
2022/03/25 01:23:21;;;;;;;;;;;5.40;99.90;;;;;;5097142;28;19973;-56
2022/03/25 01:25:49;;;;;;;;;;;5.40;99.90;;;;;;5095477;28;20015;-56
2022/03/25 01:28:16;;;;;;;;;;;5.40;99.90;;;;;;5093720;28;19931;-56
2022/03/25 01:30:43;;;;;;;;;;;5.30;99.90;;;;;;5093982;28;19924;-56
2022/03/25 01:33:10;;;;;;;;;;;5.20;99.90;;;;;;5094932;28;20015;-56
2022/03/25 01:35:37;;;;;;;;;;;5.20;99.90;;;;;;5100480;28;19924;-56
2022/03/25 01:38:04;;;;;;;;;;;5.10;99.90;;;;;;5094734;28;19924;-60
2022/03/25 01:40:31;;;;;;;;;;;5.20;99.90;;;;;;5094135;28;19923;-56
2022/03/25 01:42:59;;;;;;;;;;;5.10;99.90;;;;;;5095214;28;20291;-57
2022/03/25 01:45:31;;;;;;;;;;;5.00;99.90;;;;;;5093457;28;19924;-56
2022/03/25 01:47:58;;;;;;;;;;;5.00;99.90;;;;;;5094839;28;19924;-57
2022/03/25 01:50:25;;;;;;;;;;;5.10;99.90;;;;;;5101850;28;20006;-57
2022/03/25 01:52:53;;;;;;;;;;;5.30;99.90;;;;;;5093927;28;19924;-56
2022/03/25 01:55:21;;;;;;;;;;;5.20;99.90;;;;;;5094417;28;19924;-57
2022/03/25 01:57:49;;;;;;;;;;;5.20;99.90;;;;;;5094524;28;19974;-56
2022/03/25 02:00:19;;;;;;;;;;;5.20;99.90;;;;;;5094336;28;19924;-56
2022/03/25 02:02:46;;;;;;;;;;;5.10;99.90;;;;;;5104832;28;19985;-57
2022/03/25 02:05:13;;;;;;;;;;;5.10;99.90;;;;;;5098454;28;19924;-57
2022/03/25 02:07:40;;;;;;;;;;;5.30;99.90;;;;;;5093237;28;19931;-57
2022/03/25 02:10:07;;;;;;;;;;;5.20;99.90;;;;;;5094407;28;19970;-57
2022/03/25 02:12:34;;;;;;;;;;;5.10;99.90;;;;;;5093736;28;19928;-57
2022/03/25 02:15:01;;;;;;;;;;;5.10;99.90;;;;;;5093450;28;20421;-57
2022/03/25 02:17:29;;;;;;;;;;;5.00;99.90;;;;;;5094421;28;19924;-57
2022/03/25 02:19:56;;;;;;;;;;;5.00;99.90;;;;;;5093577;28;19924;-57
2022/03/25 02:22:24;;;;;;;;;;;4.90;99.90;;;;;;5093400;28;20001;-57
2022/03/25 02:24:51;;;;;;;;;;;5.10;99.90;;;;;;5093793;28;19924;-57
2022/03/25 02:27:18;;;;;;;;;;;5.10;99.90;;;;;;5093523;28;19969;-57
2022/03/25 02:29:45;;;;;;;;;;;4.90;99.90;;;;;;5095264;28;20300;-57
2022/03/25 02:32:12;;;;;;;;;;;4.80;99.90;;;;;;5094054;28;19928;-57
2022/03/25 02:34:39;;;;;;;;;;;4.80;99.90;;;;;;5094414;28;19924;-57
2022/03/25 02:37:07;;;;;;;;;;;5.00;99.90;;;;;;5093582;28;19932;-57
2022/03/25 02:39:35;;;;;;;;;;;4.90;99.90;;;;;;5093264;28;19971;-57
2022/03/25 02:42:02;;;;;;;;;;;4.70;99.90;;;;;;5092994;28;19925;-58
2022/03/25 02:44:28;;;;;;;;;;;4.90;99.90;;;;;;5100719;28;19997;-57
2022/03/25 02:46:55;;;;;;;;;;;4.90;99.90;;;;;;5093806;28;19931;-57
2022/03/25 02:49:22;;;;;;;;;;;4.80;99.90;;;;;;5094425;28;20429;-57
2022/03/25 02:51:49;;;;;;;;;;;4.70;99.90;;;;;;5093800;28;19924;-57
2022/03/25 02:54:16;;;;;;;;;;;4.70;99.90;;;;;;5094451;28;19954;-57
2022/03/25 02:56:44;;;;;;;;;;;4.60;99.90;;;;;;5096744;28;19945;-58
2022/03/25 02:59:10;;;;;;;;;;;4.50;99.90;;;;;;5109128;28;20041;-56
2022/03/25 03:01:37;;;;;;;;;;;4.40;99.90;;;;;;5095653;28;19932;-57
2022/03/25 03:04:04;;;;;;;;;;;4.40;99.90;;;;;;5095371;28;19993;-61
2022/03/25 03:06:31;;;;;;;;;;;4.40;99.90;;;;;;5094092;28;19953;-57
2022/03/25 03:08:57;;;;;;;;;;;4.60;99.90;;;;;;5094075;28;19924;-58
2022/03/25 03:11:28;;;;;;;;;;;4.70;99.90;;;;;;5094039;28;19924;-57
2022/03/25 03:13:56;;;;;;;;;;;4.60;99.90;;;;;;5094231;28;19928;-57
2022/03/25 03:16:23;;;;;;;;;;;4.50;99.90;;;;;;5097084;28;19964;-58
2022/03/25 03:18:50;;;;;;;;;;;4.50;99.90;;;;;;5095901;28;19985;-57
2022/03/25 03:21:17;;;;;;;;;;;4.40;99.90;;;;;;5092728;28;19989;-57
2022/03/25 03:23:44;;;;;;;;;;;4.20;99.90;;;;;;5102221;28;19945;-57
2022/03/25 03:26:14;;;;;;;;;;;4.30;99.90;;;;;;5094992;28;19970;-57
2022/03/25 03:28:40;;;;;;;;;;;4.30;99.90;;;;;;5093406;28;19985;-57
2022/03/25 03:31:09;;;;;;;;;;;4.20;99.90;;;;;;5093980;28;20388;-57
2022/03/25 03:33:35;;;;;;;;;;;4.10;99.90;;;;;;5094176;28;20345;-57
2022/03/25 03:36:02;;;;;;;;;;;4.00;99.90;;;;;;5092501;28;19981;-57
2022/03/25 03:38:29;;;;;;;;;;;3.90;99.90;;;;;;5096646;28;20023;-57
2022/03/25 03:40:56;;;;;;;;;;;3.90;99.90;;;;;;5072595;28;19973;-57
2022/03/25 03:43:22;;;;;;;;;;;3.80;99.90;;;;;;5089750;28;19977;-57
2022/03/25 03:45:49;;;;;;;;;;;3.90;99.90;;;;;;5091041;28;19946;-57
2022/03/25 03:48:17;;;;;;;;;;;3.90;99.90;;;;;;5092277;28;19940;-57
2022/03/25 03:50:44;;;;;;;;;;;3.80;99.90;;;;;;5092281;28;19924;-57
2022/03/25 03:53:11;;;;;;;;;;;3.80;99.90;;;;;;5096659;28;19997;-56
2022/03/25 03:55:38;;;;;;;;;;;3.80;99.90;;;;;;5096773;28;19924;-57
2022/03/25 03:58:04;;;;;;;;;;;3.70;99.90;;;;;;5096863;28;19924;-57
2022/03/25 04:00:32;;;;;;;;;;;3.70;99.90;;;;;;5104582;28;19924;-57
2022/03/25 04:02:59;;;;;;;;;;;3.60;99.90;;;;;;5096811;28;19954;-57
2022/03/25 04:05:27;;;;;;;;;;;3.60;99.90;;;;;;5097545;28;20091;-57
2022/03/25 04:07:54;;;;;;;;;;;3.60;99.90;;;;;;5100088;28;19924;-57
2022/03/25 04:10:21;;;;;;;;;;;3.60;99.90;;;;;;5102277;28;19999;-57
2022/03/25 04:12:48;;;;;;;;;;;3.60;99.90;;;;;;5097299;28;19931;-57
2022/03/25 04:15:15;;;;;;;;;;;3.50;99.90;;;;;;5097121;28;19924;-57
2022/03/25 04:17:43;;;;;;;;;;;3.50;99.90;;;;;;5103711;28;19931;-57
2022/03/25 04:20:11;;;;;;;;;;;3.40;99.90;;;;;;5097162;28;19978;-57
2022/03/25 04:22:39;;;;;;;;;;;3.40;99.90;;;;;;5096577;28;19924;-57
2022/03/25 04:25:07;;;;;;;;;;;3.50;99.90;;;;;;5098074;28;20391;-57
2022/03/25 04:27:34;;;;;;;;;;;3.40;99.90;;;;;;5096847;28;19924;-57
2022/03/25 04:30:00;;;;;;;;;;;3.40;99.90;;;;;;5097160;28;19923;-57
2022/03/25 04:32:28;;;;;;;;;;;3.40;99.90;;;;;;5097289;28;19946;-57
2022/03/25 04:34:54;;;;;;;;;;;3.40;99.90;;;;;;5096615;28;19924;-57
2022/03/25 04:37:21;;;;;;;;;;;3.40;99.90;;;;;;5096496;28;20276;-57
2022/03/25 04:39:49;;;;;;;;;;;3.30;99.90;;;;;;5097892;28;19996;-57
2022/03/25 04:42:16;;;;;;;;;;;3.20;99.90;;;;;;5096479;28;19932;-57
2022/03/25 04:44:43;;;;;;;;;;;3.20;99.90;;;;;;5096787;28;19989;-57
2022/03/25 04:47:09;;;;;;;;;;;3.30;99.90;;;;;;5096943;28;19985;-57
2022/03/25 04:49:36;;;;;;;;;;;3.40;99.90;;;;;;5102354;28;19978;-57
2022/03/25 04:52:03;;;;;;;;;;;3.40;99.90;;;;;;5099202;28;19977;-57
2022/03/25 04:54:30;;;;;;;;;;;3.30;99.90;;;;;;5100600;28;19946;-56
2022/03/25 04:56:58;;;;;;;;;;;3.30;99.90;;;;;;5103375;28;19928;-57
2022/03/25 04:59:25;;;;;;;;;;;3.30;99.90;;;;;;5103921;28;20377;-57
2022/03/25 05:01:51;;;;;;;;;;;3.30;99.90;;;;;;5105727;28;19924;-58
2022/03/25 05:04:18;;;;;;;;;;;3.30;99.90;;;;;;5108763;28;19931;-57
2022/03/25 05:06:45;;;;;;;;;;;3.30;99.90;;;;;;5110385;28;19946;-57
2022/03/25 05:09:11;;;;;;;;;;;3.30;99.90;;;;;;5121448;28;19978;-58
2022/03/25 05:11:38;;;;;;;;;;;3.30;99.90;;;;;;5118347;28;19927;-57
2022/03/25 05:14:07;;;;;;;;;;;3.30;99.90;;;;;;5120244;28;19992;-58
2022/03/25 05:16:34;;;;;;;;;;;3.40;99.90;;;;;;5130724;28;19949;-58
2022/03/25 05:19:00;;;;;;;;;;;3.50;99.90;;;;;;5103985;28;19940;-57
2022/03/25 05:21:27;;;;;;;;;;;3.50;99.90;;;;;;5107141;28;19924;-57
2022/03/25 05:23:54;;;;;;;;;;;3.80;99.90;;;;;;5097042;28;19924;-57
2022/03/25 05:26:21;;;;;;;;;;;3.70;99.90;;;;;;5109258;28;20017;-57
2022/03/25 05:28:48;;;;;;;;;;;3.80;99.90;;;;;;5097586;28;19926;-58
2022/03/25 05:31:17;;;;;;;;;;;3.70;99.90;;;;;;5108247;28;19924;-57
2022/03/25 05:33:44;;;;;;;;;;;3.70;99.90;;;;;;5114586;28;19954;-57
2022/03/25 05:36:11;;;;;;;;;;;3.70;99.90;;;;;;5112989;28;19924;-57
2022/03/25 05:38:39;;;;;;;;;;;3.70;99.90;;;;;;5107031;28;19974;-58
2022/03/25 05:41:09;;;;;;;;;;;3.80;99.90;;;;;;5109529;28;19928;-57
2022/03/25 05:43:36;;;;;;;;;;;3.70;99.90;;;;;;5106045;28;20339;-57
2022/03/25 05:46:03;;;;;;;;;;;3.80;99.90;;;;;;5107890;28;19935;-58
2022/03/25 05:48:31;;;;;;;;;;;3.90;99.90;;;;;;5109102;28;19973;-59
2022/03/25 05:50:58;;;;;;;;;;;4.00;99.90;;;;;;5109685;28;20351;-57
2022/03/25 05:53:26;;;;;;;;;;;4.10;99.90;;;;;;5108042;28;19932;-58
2022/03/25 05:55:53;;;;;;;;;;;4.20;99.90;;;;;;5106268;28;19928;-58
2022/03/25 05:58:20;;;;;;;;;;;4.30;99.90;;;;;;5099378;28;19931;-57
2022/03/25 06:00:47;;;;;;;;;;;4.40;99.90;;;;;;5093335;28;19932;-58
2022/03/25 06:03:14;;;;;;;;;;;4.60;99.90;;;;;;5089627;28;19924;-57
2022/03/25 06:05:43;;;;;;;;;;;4.70;99.90;;;;;;5094232;28;19931;-57
2022/03/25 06:08:10;;;;;;;;;;;4.90;99.90;;;;;;5094261;28;19924;-57
2022/03/25 06:10:37;;;;;;;;;;;5.20;99.90;;;;;;5087019;28;19932;-57
2022/03/25 06:13:05;;;;;;;;;;;6.60;99.90;;;;;;5091099;28;19932;-57
2022/03/25 06:15:31;;;;;;;;;;;8.80;99.90;;;;;;5091717;28;19940;-57
2022/03/25 06:17:58;;;;;;;;;;;11.00;99.90;;;;;;5092212;28;20345;-57
2022/03/25 06:20:27;;;;;;;;;;;12.90;99.90;;;;;;5092682;28;19928;-57
2022/03/25 06:22:56;;;;;;;;;;;14.60;99.90;;;;;;5092029;28;19972;-57
2022/03/25 06:25:23;;;;;;;;;;;15.90;99.90;;;;;;5092320;28;20489;-57
2022/03/25 06:27:50;;;;;;;;;;;17.00;98.40;;;;;;5092436;28;19924;-58
2022/03/25 06:30:17;;;;;;;;;;;18.00;95.80;;;;;;5092062;28;20004;-58
2022/03/25 06:32:44;;;;;;;;;;;18.90;93.00;;;;;;5092812;28;19984;-58
2022/03/25 06:35:11;;;;;;;;;;;19.70;90.80;;;;;;5088906;28;19924;-58
2022/03/25 06:37:38;;;;;;;;;;;19.40;87.20;;;;;;5102667;22;20430;-51
2022/03/25 06:40:07;;;;;;;;;;;20.20;85.70;;;;;;5071530;28;20303;-51
2022/03/25 06:42:34;;;;;;;;;;;20.40;82.90;;;;;;5069836;28;20331;-51
2022/03/25 06:45:01;;;;;;;;;;;20.50;80.40;;;;;;5070593;28;19924;-50
2022/03/25 06:47:27;;;;;;;;;;;20.00;80.10;;;;;;5060725;28;19990;-51
2022/03/25 06:49:54;;;;;;;;;;;20.40;79.90;;;;;;5049651;28;20024;-51
2022/03/25 06:52:22;;;;;;;;;;;20.80;76.90;;;;;;5049561;28;19924;-51
2022/03/25 06:54:49;;;;;;;;;;;21.50;76.40;;;;;;5050345;28;19931;-51
2022/03/25 06:57:17;;;;;;;;;;;21.70;73.60;;;;;;5050332;28;19986;-51
2022/03/25 06:59:44;;;;;;;;;;;22.50;70.10;;;;;;5047231;28;19925;-51
2022/03/25 07:02:12;;;;;;;;;;;22.40;71.10;;;;;;5050984;28;19994;-52
2022/03/25 07:04:39;;;;;;;;;;;22.00;70.60;;;;;;5052719;28;19925;-51
2022/03/25 07:07:06;;;;;;;;;;;22.40;69.70;;;;;;5052198;28;19986;-52
2022/03/25 07:09:35;;;;;;;;;;;21.90;69.30;;;;;;5050066;28;20280;-51
2022/03/25 07:12:02;;;;;;;;;;;21.70;69.90;;;;;;5049475;28;20366;-51
2022/03/25 07:14:30;;;;;;;;;;;20.90;71.60;;;;;;5044455;28;19929;-51
2022/03/25 07:16:57;;;;;;;;;;;20.10;72.80;;;;;;5042631;28;20002;-51
2022/03/25 07:19:25;;;;;;;;;;;20.40;73.10;;;;;;5056662;28;19928;-51
2022/03/25 07:21:52;;;;;;;;;;;20.80;73.80;;;;;;5046913;28;19924;-51
2022/03/25 07:24:18;;;;;;;;;;;20.50;72.30;;;;;;5050522;28;19936;-51
2022/03/25 07:26:45;;;;;;;;;;;20.50;72.90;;;;;;5050891;28;19925;-52
2022/03/25 07:29:12;;;;;;;;;;;21.70;71.60;;;;;;5047574;28;20346;-51
2022/03/25 07:31:40;;;;;;;;;;;22.90;69.50;;;;;;5048053;28;19924;-51
2022/03/25 07:34:07;;;;;;;;;;;23.80;68.30;;;;;;5050542;28;19937;-51
2022/03/25 07:36:35;;;;;;;;;;;24.50;66.20;;;;;;5045338;28;19974;-51
2022/03/25 07:39:02;;;;;;;;;;;24.00;67.70;;;;;;5043366;28;20483;-50
2022/03/25 07:41:29;;;;;;;;;;;24.70;64.90;;;;;;5050373;28;20015;-51
2022/03/25 07:43:56;;;;;;;;;;;25.00;63.10;;;;;;5052003;28;20475;-51
2022/03/25 07:46:23;;;;;;;;;;;26.30;59.70;;;;;;5049388;28;20367;-51
2022/03/25 07:48:52;;;;;;;;;;;26.00;58.30;;;;;;5048954;28;20459;-51
2022/03/25 07:51:18;;;;;;;;;;;26.00;58.20;;;;;;5049328;28;20359;-52
2022/03/25 07:53:46;;;;;;;;;;;25.50;58.20;;;;;;5049370;28;19928;-52
2022/03/25 07:56:13;;;;;;;;;;;27.00;58.10;;;;;;5049306;28;19925;-52
2022/03/25 07:58:40;;;;;;;;;;;28.40;55.10;;;;;;5048868;28;19983;-51
2022/03/25 08:01:07;;;;;;;;;;;28.60;52.60;;;;;;5049596;28;20372;-52
2022/03/25 08:03:34;;;;;;;;;;;27.70;52.80;;;;;;5055817;28;19925;-52
2022/03/25 08:06:03;;;;;;;;;;;28.70;49.20;;;;;;5049521;28;19932;-52
2022/03/25 08:08:29;;;;;;;;;;;28.50;52.60;;;;;;5047901;28;19925;-52
2022/03/25 08:10:58;;;;;;;;;;;28.80;50.70;;;;;;5050258;28;20395;-52
2022/03/25 08:13:25;;;;;;;;;;;29.80;48.70;;;;;;5051300;28;19933;-52
2022/03/25 08:15:51;;;;;;;;;;;29.30;48.50;;;;;;5051129;28;19924;-52
2022/03/25 08:18:18;;;;;;;;;;;29.30;46.40;;;;;;5054311;28;19929;-51
2022/03/25 08:20:46;;;;;;;;;;;28.00;45.30;;;;;;5058129;28;19929;-51
2022/03/25 08:27:48;;;;;;;;;;;28.50;45.80;;;;;;5050694;28;19925;-52
2022/03/25 08:28:46;;;;;;;;;;;27.80;49.30;;;;;;5053621;28;19927;-52
2022/03/25 08:31:13;;;;;;;;;;;27.20;46.80;;;;;;5070925;28;19925;-52
2022/03/25 08:33:40;;;;;;;;;;;27.40;47.50;;;;;;5067678;28;20299;-52
2022/03/25 08:36:07;;;;;;;;;;;27.70;49.00;;;;;;5050612;28;20453;-52
2022/03/25 08:38:35;;;;;;;;;;;28.30;49.40;;;;;;5053054;28;19986;-52
2022/03/25 08:41:02;;;;;;;;;;;29.10;47.30;;;;;;5054865;28;19929;-52
2022/03/25 08:43:28;;;;;;;;;;;29.30;47.70;;;;;;5054258;28;20023;-54
2022/03/25 08:45:55;;;;;;;;;;;29.20;48.40;;;;;;5054876;28;19925;-52
2022/03/25 08:48:22;;;;;;;;;;;29.50;46.40;;;;;;5054508;28;19978;-52
2022/03/25 08:50:49;;;;;;;;;;;29.80;46.90;;;;;;5054560;28;20002;-52
2022/03/25 08:53:17;;;;;;;;;;;29.10;45.60;;;;;;5054407;28;19925;-52
2022/03/25 08:55:45;;;;;;;;;;;29.60;46.10;;;;;;5054511;28;20017;-52
2022/03/25 08:58:12;;;;;;;;;;;29.90;45.40;;;;;;5054540;28;19939;-52
2022/03/25 09:00:39;;;;;;;;;;;30.40;43.50;;;;;;5054475;28;20396;-52
2022/03/25 09:03:06;;;;;;;;;;;30.70;44.00;;;;;;5053943;28;20303;-52
2022/03/25 09:05:33;;;;;;;;;;;31.30;44.10;;;;;;5054155;28;19973;-52
2022/03/25 09:07:59;;;;;;;;;;;31.00;43.80;;;;;;5054133;28;19978;-52
2022/03/25 09:10:26;;;;;;;;;;;28.60;45.50;;;;;;5053913;28;19925;-52
2022/03/25 09:12:55;;;;;;;;;;;28.50;45.90;;;;;;5053638;28;19939;-52
2022/03/25 09:15:22;;;;;;;;;;;29.30;46.80;;;;;;5054216;28;19970;-52
2022/03/25 09:17:49;;;;;;;;;;;29.30;48.40;;;;;;5053808;28;19940;-52
2022/03/25 09:20:16;;;;;;;;;;;30.40;48.00;;;;;;5053881;28;19925;-52
2022/03/25 09:22:43;;;;;;;;;;;30.60;48.20;;;;;;5053362;28;19929;-52
2022/03/25 09:25:11;;;;;;;;;;;30.20;50.50;;;;;;5053708;28;20046;-52
2022/03/25 09:27:39;;;;;;;;;;;29.80;49.20;;;;;;5053604;28;19931;-51
2022/03/25 09:30:09;;;;;;;;;;;30.30;50.10;;;;;;5053773;28;19928;-52
2022/03/25 09:32:35;;;;;;;;;;;29.90;49.80;;;;;;5053098;28;20027;-52
2022/03/25 09:35:13;;;;;;;;;;;28.70;51.20;;;;;;5033726;28;19991;-52
2022/03/25 09:37:41;;;;;;;;;;;29.00;49.30;;;;;;5033277;28;19988;-51
2022/03/25 09:40:08;;;;;;;;;;;28.70;48.70;;;;;;5034143;28;19925;-52
2022/03/25 09:42:35;;;;;;;;;;;29.30;48.90;;;;;;5033231;28;20381;-51
2022/03/25 09:45:03;;;;;;;;;;;28.40;50.10;;;;;;5053571;28;19978;-52
2022/03/25 09:47:32;;;;;;;;;;;28.00;51.60;;;;;;5053226;28;19968;-51
2022/03/25 09:49:58;;;;;;;;;;;25.90;53.80;;;;;;5052046;28;19924;-51
2022/03/25 09:52:26;;;;;;;;;;;26.50;54.10;;;;;;5052956;28;19991;-51
2022/03/25 09:54:53;;;;;;;;;;;27.40;52.30;;;;;;5052740;28;19978;-51
2022/03/25 09:57:20;;;;;;;;;;;26.10;54.40;;;;;;5053155;28;20380;-51
2022/03/25 09:59:47;;;;;;;;;;;26.90;53.20;;;;;;5053035;28;19933;-51
2022/03/25 10:02:13;;;;;;;;;;;27.10;53.20;;;;;;5050960;28;19928;-51
2022/03/25 10:04:42;;;;;;;;;;;25.30;55.00;;;;;;5052531;28;19929;-51
2022/03/25 10:07:16;;;;;;;;;;;25.00;55.70;;;;;;5052654;28;19925;-51
2022/03/25 10:09:43;;;;;;;;;;;25.10;56.20;;;;;;5053438;28;19925;-51
2022/03/25 10:12:28;;;;;;;;;;;25.40;54.10;;;;;;5051985;28;19940;-51
2022/03/25 10:15:10;;;;;;;;;;;25.90;53.10;;;;;;5052600;28;20355;-51
2022/03/25 10:17:47;;;;;;;;;;;24.40;55.60;;;;;;5052465;28;20019;-52
2022/03/25 10:20:15;;;;;;;;;;;23.30;57.80;;;;;;5054423;28;19925;-51
2022/03/25 10:22:56;;;;;;;;;;;22.30;58.00;;;;;;5052276;28;19925;-51
2022/03/25 10:25:32;;;;;;;;;;;21.90;57.80;;;;;;5052339;28;19925;-51
2022/03/25 10:27:58;;;;;;;;;;;22.30;59.40;;;;;;5052507;28;19925;-51
2022/03/25 10:30:34;;;;;;;;;;;23.10;57.90;;;;;;5052306;28;20014;-50
2022/03/25 10:33:07;;;;;;;;;;;23.80;54.70;;;;;;5062530;28;19924;-51
2022/03/25 10:35:52;;;;;;;;;;;24.40;54.90;;;;;;5072205;28;20287;-51
2022/03/25 10:38:18;;;;;;;;;;;24.60;51.60;;;;;;5072114;28;19946;-51
2022/03/25 10:40:49;;;;;;;;;;;25.70;51.50;;;;;;5064420;28;19970;-51
2022/03/25 10:43:16;;;;;;;;;;;25.10;51.30;;;;;;5049103;28;20002;-51
2022/03/25 10:45:42;;;;;;;;;;;24.60;52.30;;;;;;5052133;28;19933;-51
2022/03/25 10:48:13;;;;;;;;;;;23.70;54.50;;;;;;5052059;28;19929;-51
2022/03/25 10:51:01;;;;;;;;;;;23.20;53.50;;;;;;5051983;28;20538;-51
2022/03/25 10:53:28;;;;;;;;;;;24.30;54.30;;;;;;5052111;28;19983;-51
2022/03/25 10:55:56;;;;;;;;;;;23.80;52.90;;;;;;5062299;28;19985;-51
2022/03/25 10:58:23;;;;;;;;;;;22.40;55.50;;;;;;5031941;28;19951;-51
2022/03/25 11:00:50;;;;;;;;;;;20.10;57.80;;;;;;5031554;28;20451;-50
2022/03/25 11:03:17;;;;;;;;;;;19.20;59.20;;;;;;5031968;28;19925;-51
2022/03/25 11:05:44;;;;;;;;;;;18.60;59.90;;;;;;5049552;28;19971;-50
2022/03/25 11:08:12;;;;;;;;;;;18.50;61.90;;;;;;5058033;28;19925;-51
2022/03/25 11:10:39;;;;;;;;;;;18.10;63.60;;;;;;5071958;28;19966;-50
2022/03/25 11:13:08;;;;;;;;;;;17.90;63.00;;;;;;5071546;28;20038;-50
2022/03/25 11:15:35;;;;;;;;;;;18.10;59.70;;;;;;5055413;28;20019;-50
2022/03/25 11:18:02;;;;;;;;;;;18.20;61.70;;;;;;5051727;28;19978;-50
2022/03/25 11:20:29;;;;;;;;;;;18.40;62.70;;;;;;5060515;28;20406;-50
2022/03/25 11:23:01;;;;;;;;;;;18.20;61.30;;;;;;5070932;28;19951;-50
2022/03/25 11:25:30;;;;;;;;;;;17.90;61.10;;;;;;5066225;28;20384;-51
2022/03/25 11:28:00;;;;;;;;;;;17.70;60.90;;;;;;5051366;28;19990;-50
2022/03/25 11:30:31;;;;;;;;;;;17.90;62.20;;;;;;5052334;28;20297;-51
2022/03/25 11:33:06;;;;;;;;;;;18.50;59.80;;;;;;5051767;28;19925;-50
2022/03/25 11:35:33;;;;;;;;;;;19.10;59.10;;;;;;5031618;28;19968;-50
2022/03/25 11:38:15;;;;;;;;;;;19.20;55.50;;;;;;5031259;28;19925;-50
2022/03/25 11:40:44;;;;;;;;;;;19.20;56.50;;;;;;5029909;28;20355;-50
2022/03/25 11:43:15;;;;;;;;;;;19.00;57.40;;;;;;5036039;28;19924;-50
2022/03/25 11:45:43;;;;;;;;;;;19.30;58.80;;;;;;5051309;28;19959;-50
2022/03/25 11:48:28;;;;;;;;;;;19.10;58.20;;;;;;5051300;28;19978;-50
2022/03/25 11:50:55;;;;;;;;;;;18.60;60.10;;;;;;5051205;28;19925;-50
2022/03/25 11:53:32;;;;;;;;;;;18.20;62.10;;;;;;5048264;28;19933;-50
2022/03/25 11:56:01;;;;;;;;;;;18.50;60.40;;;;;;5042383;28;19932;-50
2022/03/25 11:58:29;;;;;;;;;;;18.80;58.90;;;;;;5049475;28;19932;-50
2022/03/25 12:00:58;;;;;;;;;;;18.70;59.70;;;;;;5049835;28;19929;-50
2022/03/25 12:03:40;;;;;;;;;;;18.80;59.90;;;;;;5049046;28;19935;-50
2022/03/25 12:06:10;;;;;;;;;;;18.90;60.00;;;;;;5050207;28;19928;-50
2022/03/25 12:08:38;;;;;;;;;;;19.20;60.00;;;;;;5050779;28;19925;-50
2022/03/25 12:11:07;;;;;;;;;;;19.40;62.00;;;;;;5050802;28;19935;-50
2022/03/25 12:14:04;;;;;;;;;;;19.30;59.30;;;;;;5052400;28;20404;-50
2022/03/25 12:16:49;;;;;;;;;;;19.10;63.80;;;;;;5049371;28;19955;-50
2022/03/25 12:19:30;;;;;;;;;;;18.60;62.40;;;;;;5053603;28;19925;-49
2022/03/25 12:21:58;;;;;;;;;;;18.70;63.50;;;;;;5052931;28;19929;-50
2022/03/25 12:24:25;;;;;;;;;;;19.10;62.30;;;;;;5053388;28;19933;-50
2022/03/25 12:26:56;;;;;;;;;;;18.70;64.80;;;;;;5053533;28;19925;-50
2022/03/25 12:29:28;;;;;;;;;;;18.80;61.60;;;;;;5054879;28;20530;-50
2022/03/25 12:31:56;;;;;;;;;;;18.80;63.20;;;;;;5054635;28;19940;-50
2022/03/25 12:34:29;;;;;;;;;;;19.10;63.00;;;;;;5053310;28;19928;-50
2022/03/25 12:36:57;;;;;;;;;;;19.40;61.20;;;;;;5054429;28;19925;-50
2022/03/25 12:39:24;;;;;;;;;;;19.30;61.80;;;;;;5055115;28;20402;-49
2022/03/25 12:41:51;;;;;;;;;;;19.30;61.40;;;;;;5054356;28;19970;-50
2022/03/25 12:44:27;;;;;;;;;;;19.30;61.70;;;;;;5053747;28;20043;-50
2022/03/25 12:46:58;;;;;;;;;;;19.10;62.70;;;;;;5054197;28;19925;-49
2022/03/25 12:49:25;;;;;;;;;;;19.30;64.90;;;;;;5054391;28;19924;-50
2022/03/25 12:51:55;;;;;;;;;;;19.00;62.60;;;;;;5054302;28;19995;-50
2022/03/25 12:54:22;;;;;;;;;;;19.10;63.10;;;;;;5054015;28;19948;-50
2022/03/25 12:56:55;;;;;;;;;;;19.10;62.20;;;;;;5054196;28;20350;-50
2022/03/25 12:59:30;;;;;;;;;;;19.20;64.80;;;;;;5054256;28;20315;-50
2022/03/25 13:01:57;;;;;;;;;;;19.20;66.60;;;;;;5054203;28;19932;-50
2022/03/25 13:04:30;;;;;;;;;;;19.50;63.10;;;;;;5054001;28;19929;-49
2022/03/25 13:06:57;;;;;;;;;;;19.60;63.50;;;;;;5054479;28;19924;-50
2022/03/25 13:09:24;;;;;;;;;;;19.50;60.80;;;;;;5054165;28;19932;-50
2022/03/25 13:12:02;;;;;;;;;;;19.50;63.80;;;;;;5054010;28;19925;-50
2022/03/25 13:14:30;;;;;;;;;;;19.50;61.70;;;;;;5054112;28;19932;-50
2022/03/25 13:16:57;;;;;;;;;;;19.60;63.60;;;;;;5053746;28;19986;-50
2022/03/25 13:19:29;;;;;;;;;;;19.30;62.30;;;;;;5053986;28;19932;-50
2022/03/25 13:21:56;;;;;;;;;;;19.50;66.00;;;;;;5053828;28;19982;-50
2022/03/25 13:24:22;;;;;;;;;;;19.50;62.80;;;;;;5053183;28;19931;-50
2022/03/25 13:26:49;;;;;;;;;;;19.70;63.00;;;;;;5053723;28;20299;-50
2022/03/25 13:29:16;;;;;;;;;;;19.50;65.30;;;;;;5053541;28;19970;-50
2022/03/25 13:31:51;;;;;;;;;;;19.20;66.30;;;;;;5053565;28;19924;-49
2022/03/25 13:34:18;;;;;;;;;;;19.20;65.30;;;;;;5053374;28;19928;-48
2022/03/25 13:36:52;;;;;;;;;;;19.30;65.60;;;;;;5053569;28;19925;-50
2022/03/25 13:39:19;;;;;;;;;;;19.50;65.20;;;;;;5091668;22;19973;-57
2022/03/25 13:41:46;;;;;;;;;;;18.80;66.10;;;;;;5099807;28;19973;-57
2022/03/25 13:44:13;;;;;;;;;;;18.70;67.20;;;;;;5091428;28;19981;-57
2022/03/25 13:46:40;;;;;;;;;;;18.70;65.40;;;;;;5093418;28;19928;-58
2022/03/25 13:49:09;;;;;;;;;;;18.90;65.20;;;;;;5092472;28;19985;-55
2022/03/25 13:51:37;;;;;;;;;;;19.30;65.50;;;;;;5091828;28;19928;-57
2022/03/25 13:54:05;;;;;;;;;;;19.20;66.60;;;;;;5092130;28;19969;-57
2022/03/25 13:56:34;;;;;;;;;;;19.20;67.40;;;;;;5092003;28;20253;-58
2022/03/25 13:59:01;;;;;;;;;;;19.30;65.20;;;;;;5091948;28;19924;-57
2022/03/25 14:01:32;;;;;;;;;;;19.30;67.20;;;;;;5091878;28;20440;-58
2022/03/25 14:04:03;;;;;;;;;;;19.20;61.00;;;;;;5093420;28;20342;-57
2022/03/25 14:06:33;;;;;;;;;;;19.30;64.50;;;;;;5093334;28;19924;-57
2022/03/25 14:09:00;;;;;;;;;;;19.40;63.70;;;;;;5093239;28;20288;-58
2022/03/25 14:11:32;;;;;;;;;;;19.30;65.30;;;;;;5092849;28;19989;-58
2022/03/25 14:13:59;;;;;;;;;;;19.50;62.20;;;;;;5092846;28;20347;-58
2022/03/25 14:16:28;;;;;;;;;;;19.70;60.80;;;;;;5093008;28;19954;-58
2022/03/25 14:18:55;;;;;;;;;;;19.20;58.20;;;;;;5093065;28;20020;-58
2022/03/25 14:21:28;;;;;;;;;;;19.10;58.80;;;;;;5092612;28;19940;-58
2022/03/25 14:26:37;;;;;;;;;;;19.30;59.40;;;;;;5092628;28;19977;-58
2022/03/25 14:29:05;;;;;;;;;;;19.30;58.50;;;;;;5093084;28;19928;-58
2022/03/25 14:31:32;;;;;;;;;;;19.10;58.80;;;;;;5092546;28;19986;-58
2022/03/25 14:33:58;;;;;;;;;;;19.20;58.20;;;;;;5092560;28;19973;-58
2022/03/25 14:36:25;;;;;;;;;;;19.20;57.20;;;;;;5092054;28;19924;-58